Data for 10/14/2017

Time Sea-Level Adjusted Pressure Absolute Pressure Temperature Relative Humidity Dew Point   
(mb) (inHg) (mb) (inHg) (C) (F) (%) (C) (F)
00:05 1020 30.12 849 25.07 -0 32 74 -4.1 24.6
00:10 1020 30.12 849 25.07 -0.1 31.8 75 -4 24.7
00:15 1020 30.12 850 25.1 -0.1 31.8 75 -4.1 24.6
00:20 1020 30.12 850 25.1 -0.1 31.9 75 -4 24.8
00:25 1020 30.12 850 25.1 -0.1 31.8 75 -4 24.8
00:30 1020 30.12 850 25.1 -0.2 31.7 75 -4 24.7
00:35 1020 30.12 849 25.07 -0.2 31.6 76 -4 24.8
00:40 1020 30.12 849 25.07 -0.3 31.5 76 -4 24.8
00:45 1020 30.12 850 25.1 -0.4 31.3 76 -4.1 24.7
00:50 1020 30.12 850 25.1 -0.5 31 78 -4 24.8
00:55 1020 30.12 850 25.1 -0.6 30.9 78 -3.9 25
01:00 1020 30.12 850 25.1 -0.6 31 78 -4 24.8
01:05 1020 30.12 850 25.1 -0.5 31.1 77 -3.9 24.9
01:10 1021 30.15 850 25.1 -0.4 31.3 77 -3.9 24.9
01:15 1021 30.15 850 25.1 -0.3 31.4 77 -3.8 25.1
01:20 1021 30.15 850 25.1 -0.4 31.3 78 -3.8 25.2
01:25 1021 30.15 850 25.1 -0.3 31.4 77 -3.8 25.2
01:30 1021 30.15 850 25.1 -0.2 31.6 76 -4 24.8
01:35 1021 30.15 850 25.1 -0.1 31.8 76 -3.9 25
01:40 1021 30.15 850 25.1 -0.1 31.8 76 -3.9 25
01:45 1021 30.15 850 25.1 -0.1 31.8 76 -3.8 25.2
01:50 1021 30.15 850 25.1 -0.2 31.7 77 -3.8 25.2
01:55 1021 30.15 850 25.1 -0.1 31.8 76 -3.8 25.2
02:00 1021 30.15 850 25.1 -0.1 31.8 76 -3.8 25.1
02:05 1021 30.15 851 25.13 -0.2 31.7 76 -3.9 25.1
02:10 1021 30.15 851 25.13 -0.3 31.5 77 -3.8 25.1
02:15 1021 30.15 851 25.13 -0.4 31.3 77 -3.9 25
02:20 1022 30.18 851 25.13 -0.4 31.2 78 -3.9 25
02:25 1022 30.18 851 25.13 -0.5 31.1 78 -3.8 25.1
02:30 1022 30.18 851 25.13 -0.6 30.9 79 -3.8 25.1
02:35 1022 30.18 851 25.13 -0.6 30.8 79 -3.9 25.1
02:40 1022 30.18 851 25.13 -0.7 30.8 79 -3.9 25
02:45 1022 30.18 851 25.13 -0.7 30.8 79 -3.8 25.1
02:50 1022 30.18 851 25.13 -0.7 30.7 80 -3.8 25.2
02:55 1022 30.18 851 25.13 -0.7 30.7 79 -3.8 25.1
03:00 1022 30.18 851 25.13 -0.7 30.8 79 -3.8 25.1
03:05 1022 30.18 851 25.13 -0.6 30.9 79 -3.9 25
03:10 1022 30.18 852 25.16 -0.6 30.9 78 -4 24.9
03:15 1022 30.18 852 25.16 -0.6 31 77 -4.1 24.6
03:20 1022 30.18 852 25.16 -0.5 31 77 -4.2 24.5
03:25 1023 30.21 852 25.16 -0.5 31.1 76 -4.2 24.5
03:30 1023 30.21 852 25.16 -0.5 31.1 75 -4.3 24.3
03:35 1023 30.21 852 25.16 -0.4 31.2 75 -4.3 24.2
03:40 1023 30.21 852 25.16 -0.5 31.2 75 -4.3 24.3
03:45 1023 30.21 852 25.16 -0.6 30.9 76 -4.3 24.3
03:50 1023 30.21 852 25.16 -0.7 30.8 77 -4.3 24.3
03:55 1023 30.21 852 25.16 -0.8 30.6 77 -4.2 24.4
04:00 1023 30.21 852 25.16 -0.9 30.4 78 -4.3 24.3
04:05 1023 30.21 852 25.16 -1 30.2 79 -4.2 24.4
04:10 1023 30.21 852 25.16 -1.1 30 79 -4.3 24.3
04:15 1023 30.21 852 25.16 -1.1 30 79 -4.3 24.3
04:20 1023 30.21 852 25.16 -1.1 30 79 -4.3 24.3
04:25 1023 30.21 852 25.16 -1.1 30 79 -4.3 24.2
04:30 1023 30.21 852 25.16 -1.1 30.1 79 -4.3 24.3
04:35 1023 30.21 853 25.19 -1 30.3 78 -4.2 24.4
04:40 1023 30.21 853 25.19 -0.9 30.4 78 -4.2 24.4
04:45 1024 30.24 853 25.19 -0.8 30.6 78 -4.2 24.4
04:50 1024 30.24 853 25.19 -0.7 30.7 78 -4.1 24.5
04:55 1024 30.24 853 25.19 -0.7 30.7 78 -4.1 24.6
05:00 1024 30.24 853 25.19 -0.7 30.8 78 -4 24.7
05:05 1024 30.24 853 25.19 -0.7 30.7 78 -4 24.8
05:10 1024 30.24 853 25.19 -0.7 30.8 78 -4 24.8
05:15 1024 30.24 853 25.19 -0.7 30.8 79 -3.9 24.9
05:20 1024 30.24 853 25.19 -0.7 30.7 79 -3.9 25
05:25 1024 30.24 853 25.19 -0.7 30.7 79 -3.9 24.9
05:30 1024 30.24 854 25.22 -0.7 30.7 79 -3.8 25.1
05:35 1024 30.24 854 25.22 -0.7 30.8 79 -3.8 25.1
05:40 1025 30.27 854 25.22 -0.6 30.9 79 -3.8 25.2
05:45 1025 30.27 854 25.22 -0.6 30.8 80 -3.7 25.3
05:50 1025 30.27 854 25.22 -0.6 30.8 80 -3.7 25.4
05:55 1025 30.27 854 25.22 -0.7 30.8 80 -3.7 25.4
06:00 1025 30.27 854 25.22 -0.7 30.8 80 -3.7 25.3
06:05 1025 30.27 854 25.22 -0.7 30.8 80 -3.7 25.4
06:10 1025 30.27 854 25.22 -0.7 30.7 81 -3.6 25.5
06:15 1025 30.27 854 25.22 -0.6 30.8 80 -3.6 25.5
06:20 1025 30.27 854 25.22 -0.6 30.9 80 -3.6 25.6
06:25 1025 30.27 854 25.22 -0.6 31 80 -3.5 25.6
06:30 1025 30.27 855 25.25 -0.5 31 80 -3.5 25.7
06:35 1025 30.27 855 25.25 -0.5 31.1 80 -3.5 25.7
06:40 1025 30.27 855 25.25 -0.5 31.2 80 -3.5 25.7
06:45 1026 30.3 855 25.25 -0.4 31.2 80 -3.4 25.8
06:50 1026 30.3 855 25.25 -0.5 31.2 80 -3.4 25.8
06:55 1026 30.3 855 25.25 -0.5 31.1 81 -3.4 25.9
07:00 1026 30.3 855 25.25 -0.5 31.1 80 -3.5 25.6
07:05 1026 30.3 855 25.25 -0.5 31.2 80 -3.5 25.7
07:10 1026 30.3 855 25.25 -0.4 31.3 79 -3.6 25.6
07:15 1026 30.3 855 25.25 -0.4 31.4 79 -3.6 25.5
07:20 1026 30.3 855 25.25 -0.3 31.4 78 -3.6 25.4
07:25 1026 30.3 855 25.25 -0.4 31.2 79 -3.6 25.6
07:30 1026 30.3 855 25.25 -0.5 31.2 79 -3.7 25.4
07:35 1026 30.3 855 25.25 -0.6 31 79 -3.7 25.3
07:40 1026 30.3 855 25.25 -0.7 30.8 80 -3.7 25.3
07:45 1026 30.3 855 25.25 -0.6 30.9 80 -3.7 25.4
07:50 1026 30.3 856 25.28 -0.6 31 79 -3.8 25.2
07:55 1026 30.3 856 25.28 -0.6 31 79 -3.7 25.3
08:00 1026 30.3 856 25.28 -0.4 31.2 79 -3.7 25.4
08:05 1026 30.3 856 25.28 -0.3 31.4 78 -3.8 25.2
08:10 1027 30.33 856 25.28 -0.2 31.6 76 -4 24.8
08:15 1027 30.33 856 25.28 -0.2 31.7 75 -4 24.7
08:20 1027 30.33 856 25.28 -0.1 31.8 75 -4.1 24.6
08:25 1027 30.33 856 25.28 -0.1 31.9 74 -4.1 24.5
08:30 1027 30.33 856 25.28 -0 32 73 -4.2 24.4
08:35 1027 30.33 856 25.28 0 32.1 73 -4.2 24.4
08:40 1027 30.33 856 25.28 0.1 32.2 72 -4.3 24.3
08:45 1027 30.33 856 25.28 0.2 32.4 72 -4.3 24.3
08:50 1027 30.33 856 25.28 0.3 32.6 72 -4.2 24.4
08:55 1027 30.33 856 25.28 0.4 32.8 70 -4.3 24.2
09:00 1027 30.33 856 25.28 0.5 33 71 -4.2 24.5
09:05 1027 30.33 856 25.28 0.7 33.2 71 -4.1 24.7
09:10 1027 30.33 856 25.28 0.8 33.4 69 -4.3 24.2
09:15 1027 30.33 856 25.28 0.9 33.6 68 -4.2 24.4
09:20 1027 30.33 856 25.28 1 33.7 67 -4.5 24
09:25 1027 30.33 856 25.28 1.1 34 65 -4.7 23.5
09:30 1027 30.33 856 25.28 1.1 34 64 -5 23
09:35 1027 30.33 856 25.28 1 33.8 65 -4.9 23.1
09:40 1027 30.33 856 25.28 0.9 33.7 65 -4.8 23.3
09:45 1027 30.33 856 25.28 1.1 34 63 -5.1 22.8
09:50 1027 30.33 856 25.28 1.9 35.4 60 -5 23
09:55 1027 30.33 856 25.28 2.4 36.4 56 -5.4 22.2
10:00 1027 30.33 857 25.31 3.1 37.6 52 -5.9 21.5
10:05 1027 30.33 857 25.31 3 37.5 54 -5.4 22.3
10:10 1027 30.33 857 25.31 2.6 36.7 56 -5.4 22.3
10:15 1027 30.33 857 25.31 2.2 36 52 -6.6 20.2
10:20 1027 30.33 857 25.31 2.3 36.1 52 -6.6 20.1
10:25 1027 30.33 857 25.31 2.6 36.6 50 -6.8 19.8
10:30 1027 30.33 857 25.31 2.4 36.3 52 -6.5 20.3
10:35 1027 30.33 857 25.31 2.3 36.2 51 -6.9 19.6
10:40 1027 30.33 857 25.31 2.2 36 50 -7.3 18.9
10:45 1027 30.33 857 25.31 2.7 36.9 43 -8.6 16.5
10:50 1027 30.33 857 25.31 3.1 37.6 43 -8.4 16.9
10:55 1027 30.33 856 25.28 3.5 38.3 40 -8.7 16.3
11:00 1027 30.33 857 25.31 3.6 38.4 39 -9.1 15.7
11:05 1027 30.33 857 25.31 3.2 37.7 40 -9.2 15.4
11:10 1027 30.33 857 25.31 3.3 38 38 -9.5 14.8
11:15 1027 30.33 857 25.31 3.4 38.2 39 -9.1 15.5
11:20 1027 30.33 857 25.31 3.5 38.3 38 -9.5 14.8
11:25 1027 30.33 857 25.31 3.6 38.5 39 -9.1 15.7
11:30 1027 30.33 857 25.31 4.1 39.3 37 -9.4 15.1
11:35 1027 30.33 857 25.31 4.4 39.9 37 -9.1 15.5
11:40 1027 30.33 856 25.28 4.4 40 36 -9.3 15.3
11:45 1027 30.33 856 25.28 4.6 40.2 37 -9 15.8
11:50 1027 30.33 856 25.28 4.6 40.2 36 -9.1 15.6
11:55 1027 30.33 856 25.28 4.6 40.3 36 -9.1 15.7
12:00 1027 30.33 856 25.28 5.1 41.3 35 -9.2 15.4
12:05 1027 30.33 856 25.28 4.9 40.8 34 -9.6 14.7
12:10 1027 30.33 856 25.28 4.4 40 36 -9.5 14.8
12:15 1027 30.33 856 25.28 3.9 39 37 -9.4 15.1
12:20 1027 30.33 856 25.28 4.9 40.8 35 -9.5 15
12:25 1027 30.33 856 25.28 5.6 42 33 -9.4 15.1
12:30 1027 30.33 856 25.28 5.3 41.6 34 -9.3 15.2
12:35 1027 30.33 856 25.28 5.6 42.1 33 -9.3 15.3
12:40 1027 30.33 856 25.28 5.5 41.9 33 -9.6 14.8
12:45 1027 30.33 856 25.28 5.5 41.9 34 -9.1 15.7
12:50 1027 30.33 856 25.28 5.6 42.1 33 -9.3 15.3
12:55 1027 30.33 856 25.28 5.5 41.9 34 -9.1 15.6
13:00 1027 30.33 856 25.28 5.4 41.8 34 -9.3 15.3
13:05 1027 30.33 856 25.28 6.1 43 31 -9.6 14.6
13:10 1027 30.33 856 25.28 6.5 43.7 32 -9 15.8
13:15 1027 30.33 856 25.28 6.6 44 28 -10.8 12.5
13:20 1027 30.33 856 25.28 6.8 44.2 26 -11.2 11.8
13:25 1027 30.33 856 25.28 6.4 43.6 27 -11.1 12
13:30 1027 30.33 856 25.28 5.7 42.3 29 -11.1 12
13:35 1027 30.33 856 25.28 6.5 43.6 28 -10.8 12.5
13:40 1027 30.33 856 25.28 6.7 44.1 27 -11 12.2
13:45 1027 30.33 856 25.28 7.3 45.1 26 -11 12.1
13:50 1027 30.33 856 25.28 7 44.7 26 -11 12.2
13:55 1027 30.33 856 25.28 6.5 43.7 26 -11.6 11.1
14:00 1027 30.33 856 25.28 6.3 43.4 27 -11.2 11.9
14:05 1027 30.33 856 25.28 6.3 43.4 27 -11.4 11.6
14:10 1027 30.33 856 25.28 6.5 43.7 26 -11.5 11.3
14:15 1027 30.33 856 25.28 6.4 43.5 27 -11.1 12
14:20 1027 30.33 856 25.28 6.8 44.2 27 -11 12.2
14:25 1026 30.3 856 25.28 7.3 45.2 25 -11.5 11.3
14:30 1026 30.3 856 25.28 7.4 45.3 25 -11.3 11.7
14:35 1026 30.3 856 25.28 7.6 45.6 25 -11.4 11.5
14:40 1026 30.3 856 25.28 7.6 45.6 25 -11.4 11.5
14:45 1026 30.3 856 25.28 7.6 45.7 24 -11.7 10.9
14:50 1026 30.3 856 25.28 7.9 46.1 24 -11.7 11
14:55 1026 30.3 856 25.28 7.9 46.1 24 -11.6 11
15:00 1026 30.3 856 25.28 7.7 45.8 24 -11.8 10.8
15:05 1026 30.3 856 25.28 8 46.5 23 -12.1 10.2
15:10 1026 30.3 856 25.28 8 46.3 23 -12.1 10.1
15:15 1026 30.3 856 25.28 7.9 46.2 23 -12.1 10.3
15:20 1026 30.3 856 25.28 8.1 46.6 23 -11.7 11
15:25 1026 30.3 855 25.25 8.3 47 21 -12.5 9.5
15:30 1026 30.3 855 25.25 8.2 46.8 21 -12.7 9.1
15:35 1026 30.3 855 25.25 8.1 46.6 22 -12.2 10.1
15:40 1026 30.3 856 25.28 8.4 47 22 -12.1 10.2
15:45 1026 30.3 856 25.28 8.7 47.7 22 -11.8 10.8
15:50 1026 30.3 856 25.28 8.7 47.7 22 -12.1 10.3
15:55 1026 30.3 856 25.28 8.7 47.7 22 -11.9 10.5
16:00 1026 30.3 855 25.25 8.5 47.4 21 -12.3 9.8
16:05 1026 30.3 856 25.28 8.6 47.5 21 -12.4 9.8
16:10 1026 30.3 856 25.28 8.7 47.6 22 -12.1 10.2
16:15 1026 30.3 856 25.28 8.7 47.7 22 -12 10.5
16:20 1026 30.3 855 25.25 8.7 47.7 21 -12.4 9.8
16:25 1026 30.3 855 25.25 8.8 47.9 21 -12.4 9.7
16:30 1026 30.3 855 25.25 8.9 47.9 20 -12.7 9.1
16:35 1026 30.3 855 25.25 9 48.1 21 -12.3 9.9
16:40 1026 30.3 855 25.25 9 48.2 20 -12.7 9.2
16:45 1026 30.3 855 25.25 9.1 48.3 21 -12.3 9.9
16:50 1026 30.3 855 25.25 9.1 48.4 19 -13.2 8.3
16:55 1026 30.3 855 25.25 9 48.2 20 -12.9 8.8
17:00 1026 30.3 855 25.25 8.9 48.1 20 -12.7 9.1
17:05 1026 30.3 855 25.25 8.9 48 21 -12.2 10.1
17:10 1026 30.3 855 25.25 9.1 48.4 20 -12.7 9.1
17:15 1026 30.3 855 25.25 8.9 48.1 20 -12.8 8.9
17:20 1026 30.3 855 25.25 8.9 48 21 -12.5 9.5
17:25 1026 30.3 855 25.25 9 48.2 21 -12 10.4
17:30 1026 30.3 855 25.25 9.1 48.3 21 -12.1 10.1
17:35 1026 30.3 855 25.25 9 48.1 22 -11.9 10.6
17:40 1026 30.3 855 25.25 8.9 48 22 -12 10.4
17:45 1026 30.3 855 25.25 8.8 47.8 23 -11.5 11.2
17:50 1026 30.3 855 25.25 8.8 47.8 23 -11.4 11.6
17:55 1026 30.3 856 25.28 8.8 47.9 24 -10.7 12.8
18:00 1026 30.3 856 25.28 8.8 47.8 25 -10.5 13.1
18:05 1026 30.3 855 25.25 8.6 47.5 24 -10.9 12.4
18:10 1026 30.3 855 25.25 8.5 47.4 24 -10.8 12.6
18:15 1026 30.3 856 25.28 8.5 47.3 25 -10.5 13.1
18:20 1026 30.3 856 25.28 8.2 46.8 25 -10.4 13.2
18:25 1026 30.3 856 25.28 7.9 46.3 26 -10.5 13.2
18:30 1026 30.3 856 25.28 7.8 46.1 26 -10.3 13.4
18:35 1026 30.3 856 25.28 7.5 45.5 27 -10.2 13.6
18:40 1026 30.3 856 25.28 7.2 45 28 -10.1 13.8
18:45 1027 30.33 856 25.28 6.9 44.4 28 -10.2 13.6
18:50 1027 30.33 856 25.28 6.6 43.9 28 -10.6 13
18:55 1027 30.33 856 25.28 6.5 43.7 29 -10.5 13.2
19:00 1027 30.33 856 25.28 6.4 43.6 29 -10.5 13.1
19:05 1027 30.33 856 25.28 6.3 43.3 30 -10.3 13.5
19:10 1027 30.33 856 25.28 6.1 43.1 30 -10.3 13.5
19:15 1027 30.33 856 25.28 6.1 42.9 30 -10.4 13.2
19:20 1027 30.33 856 25.28 6 42.9 30 -10.2 13.6
19:25 1027 30.33 856 25.28 5.9 42.7 32 -9.7 14.6
19:30 1027 30.33 856 25.28 5.5 41.9 33 -9.6 14.8
19:35 1027 30.33 856 25.28 5.3 41.5 34 -9.3 15.3
19:40 1027 30.33 856 25.28 5.1 41.1 35 -9.3 15.2
19:45 1027 30.33 856 25.28 5 41 38 -8.2 17.3
19:50 1027 30.33 856 25.28 4.8 40.6 38 -8.5 16.8
19:55 1027 30.33 856 25.28 4.6 40.3 39 -8.2 17.2
20:00 1027 30.33 857 25.31 4.4 40 43 -7.1 19.2
20:05 1027 30.33 857 25.31 4 39.1 45 -7 19.3
20:10 1027 30.33 857 25.31 3.7 38.6 41 -8.3 17.1
20:15 1027 30.33 857 25.31 4.2 39.6 38 -9 15.8
20:20 1027 30.33 857 25.31 4.7 40.4 35 -9.5 14.9
20:25 1027 30.33 857 25.31 5 41 33 -9.8 14.4
20:30 1027 30.33 857 25.31 5.2 41.3 34 -9.4 15.1
20:35 1027 30.33 857 25.31 5.2 41.3 35 -8.9 16
20:40 1027 30.33 857 25.31 5.1 41.2 35 -9 15.7
20:45 1027 30.33 857 25.31 5.2 41.4 35 -9 15.9
20:50 1027 30.33 857 25.31 5.3 41.6 35 -8.8 16.1
20:55 1027 30.33 857 25.31 5.3 41.5 36 -8.7 16.4
21:00 1027 30.33 857 25.31 5.3 41.6 33 -9.7 14.6
21:05 1027 30.33 857 25.31 5.6 42 33 -9.3 15.2
21:10 1027 30.33 857 25.31 5.7 42.2 33 -9.5 14.9
21:15 1027 30.33 857 25.31 5.7 42.2 33 -9.5 14.9
21:20 1027 30.33 857 25.31 5.6 42 33 -9.4 15
21:25 1027 30.33 857 25.31 5.5 41.9 34 -9.2 15.4
21:30 1027 30.33 857 25.31 5.5 41.9 35 -9 15.9
21:35 1028 30.36 857 25.31 5.4 41.8 35 -8.8 16.2
21:40 1028 30.36 857 25.31 5.5 41.8 33 -9.5 14.9
21:45 1028 30.36 857 25.31 5.6 42.1 32 -9.7 14.5
21:50 1028 30.36 857 25.31 5.8 42.5 30 -10.6 12.9
21:55 1028 30.36 857 25.31 6.1 43 30 -10.3 13.5
22:00 1028 30.36 857 25.31 6.2 43.1 29 -10.5 13.2
22:05 1028 30.36 857 25.31 6.3 43.4 29 -10.3 13.4
22:10 1028 30.36 857 25.31 6.4 43.4 31 -9.5 14.9
22:15 1028 30.36 857 25.31 6.1 43 31 -9.6 14.6
22:20 1028 30.36 857 25.31 6.1 42.9 32 -9.5 14.9
22:25 1028 30.36 857 25.31 5.9 42.7 32 -9.5 15
22:30 1028 30.36 857 25.31 5.8 42.4 33 -9.5 15
22:35 1028 30.36 857 25.31 5.8 42.4 32 -9.7 14.6
22:40 1028 30.36 857 25.31 6 42.8 31 -9.7 14.5
22:45 1028 30.36 857 25.31 6.2 43.1 31 -9.7 14.6
22:50 1028 30.36 857 25.31 6.1 43 32 -9.4 15.1
22:55 1028 30.36 857 25.31 5.9 42.6 33 -9.1 15.6
23:00 1028 30.36 857 25.31 5.7 42.3 34 -9 15.8
23:05 1028 30.36 858 25.34 5.6 42.1 37 -7.8 17.9
23:10 1028 30.36 858 25.34 5.6 42 35 -8.6 16.6
23:15 1028 30.36 858 25.34 5.5 42 36 -8.5 16.6
23:20 1028 30.36 858 25.34 5.5 41.9 35 -8.6 16.5
23:25 1028 30.36 858 25.34 5.6 42 36 -8.3 17
23:30 1028 30.36 858 25.34 5.6 42 36 -8.5 16.7
23:35 1028 30.36 858 25.34 5.6 42.1 36 -8.4 16.9
23:40 1028 30.36 858 25.34 5.6 42.1 36 -8.3 17
23:45 1028 30.36 858 25.34 5.6 42 36 -8.3 17
23:50 1028 30.36 857 25.31 5.5 42 37 -8.2 17.3
23:55 1028 30.36 857 25.31 5.5 42 37 -8 17.7
24:00 1028 30.36 858 25.34 5.5 42 37 -8.2 17.3